sensor_id;sensor_type;location;lat;lon;timestamp;P1;durP1;ratioP1;P2;durP2;ratioP2
68479;SDS011;55469;48.934;12.050;2022-09-28T00:02:06;0.68;;;0.45;;
68479;SDS011;55469;48.934;12.050;2022-09-28T00:04:32;0.60;;;0.60;;
68479;SDS011;55469;48.934;12.050;2022-09-28T00:06:59;0.70;;;0.60;;
68479;SDS011;55469;48.934;12.050;2022-09-28T00:09:25;0.60;;;0.60;;
68479;SDS011;55469;48.934;12.050;2022-09-28T00:11:52;1.27;;;0.57;;
68479;SDS011;55469;48.934;12.050;2022-09-28T00:14:18;0.80;;;0.50;;
68479;SDS011;55469;48.934;12.050;2022-09-28T00:16:45;0.82;;;0.68;;
68479;SDS011;55469;48.934;12.050;2022-09-28T00:19:11;0.50;;;0.50;;
68479;SDS011;55469;48.934;12.050;2022-09-28T00:21:38;0.55;;;0.55;;
68479;SDS011;55469;48.934;12.050;2022-09-28T00:24:06;0.50;;;0.50;;
68479;SDS011;55469;48.934;12.050;2022-09-28T00:26:47;0.50;;;0.50;;
68479;SDS011;55469;48.934;12.050;2022-09-28T00:29:24;0.40;;;0.40;;
68479;SDS011;55469;48.934;12.050;2022-09-28T00:31:59;0.57;;;0.57;;
68479;SDS011;55469;48.934;12.050;2022-09-28T00:34:33;0.43;;;0.43;;
68479;SDS011;55469;48.934;12.050;2022-09-28T00:37:02;0.50;;;0.50;;
68479;SDS011;55469;48.934;12.050;2022-09-28T00:39:29;0.40;;;0.40;;
68479;SDS011;55469;48.934;12.050;2022-09-28T00:42:00;0.40;;;0.40;;
68479;SDS011;55469;48.934;12.050;2022-09-28T00:50:18;0.63;;;0.60;;
68479;SDS011;55469;48.934;12.050;2022-09-28T00:55:30;0.60;;;0.60;;
68479;SDS011;55469;48.934;12.050;2022-09-28T00:58:05;0.60;;;0.60;;
68479;SDS011;55469;48.934;12.050;2022-09-28T01:00:35;0.75;;;0.60;;
68479;SDS011;55469;48.934;12.050;2022-09-28T01:03:04;0.40;;;0.40;;
68479;SDS011;55469;48.934;12.050;2022-09-28T01:05:32;0.45;;;0.45;;
68479;SDS011;55469;48.934;12.050;2022-09-28T01:07:59;0.50;;;0.50;;
68479;SDS011;55469;48.934;12.050;2022-09-28T01:10:26;0.65;;;0.60;;
68479;SDS011;55469;48.934;12.050;2022-09-28T01:12:54;0.50;;;0.50;;
68479;SDS011;55469;48.934;12.050;2022-09-28T01:15:20;0.50;;;0.50;;
68479;SDS011;55469;48.934;12.050;2022-09-28T01:23:46;0.45;;;0.40;;
68479;SDS011;55469;48.934;12.050;2022-09-28T01:26:17;0.47;;;0.47;;
68479;SDS011;55469;48.934;12.050;2022-09-28T01:35:04;0.40;;;0.40;;
68479;SDS011;55469;48.934;12.050;2022-09-28T01:37:30;0.50;;;0.50;;
68479;SDS011;55469;48.934;12.050;2022-09-28T01:40:23;0.50;;;0.50;;
68479;SDS011;55469;48.934;12.050;2022-09-28T01:42:56;0.82;;;0.60;;
68479;SDS011;55469;48.934;12.050;2022-09-28T01:45:48;0.40;;;0.40;;
68479;SDS011;55469;48.934;12.050;2022-09-28T01:48:20;0.68;;;0.50;;
68479;SDS011;55469;48.934;12.050;2022-09-28T01:50:52;0.50;;;0.50;;
68479;SDS011;55469;48.934;12.050;2022-09-28T01:53:36;0.30;;;0.30;;
68479;SDS011;55469;48.934;12.050;2022-09-28T01:56:08;0.40;;;0.40;;
68479;SDS011;55469;48.934;12.050;2022-09-28T01:58:44;0.95;;;0.50;;
68479;SDS011;55469;48.934;12.050;2022-09-28T02:02:23;0.50;;;0.50;;
68479;SDS011;55469;48.934;12.050;2022-09-28T02:07:19;0.40;;;0.40;;
68479;SDS011;55469;48.934;12.050;2022-09-28T02:09:52;0.75;;;0.60;;
68479;SDS011;55469;48.934;12.050;2022-09-28T02:12:26;0.30;;;0.30;;
68479;SDS011;55469;48.934;12.050;2022-09-28T02:15:22;1.00;;;0.50;;
68479;SDS011;55469;48.934;12.050;2022-09-28T02:18:09;0.43;;;0.43;;
68479;SDS011;55469;48.934;12.050;2022-09-28T02:20:35;0.95;;;0.50;;
68479;SDS011;55469;48.934;12.050;2022-09-28T02:23:04;0.57;;;0.40;;
68479;SDS011;55469;48.934;12.050;2022-09-28T02:25:51;0.75;;;0.50;;
68479;SDS011;55469;48.934;12.050;2022-09-28T02:28:26;0.40;;;0.40;;
68479;SDS011;55469;48.934;12.050;2022-09-28T02:30:52;0.40;;;0.40;;
68479;SDS011;55469;48.934;12.050;2022-09-28T02:35:55;1.00;;;0.40;;
68479;SDS011;55469;48.934;12.050;2022-09-28T02:38:24;0.40;;;0.40;;
68479;SDS011;55469;48.934;12.050;2022-09-28T02:41:25;0.68;;;0.40;;
68479;SDS011;55469;48.934;12.050;2022-09-28T02:46:33;0.40;;;0.40;;
68479;SDS011;55469;48.934;12.050;2022-09-28T02:57:46;0.32;;;0.32;;
68479;SDS011;55469;48.934;12.050;2022-09-28T03:00:24;0.40;;;0.40;;
68479;SDS011;55469;48.934;12.050;2022-09-28T03:11:09;0.32;;;0.32;;
68479;SDS011;55469;48.934;12.050;2022-09-28T03:13:49;0.45;;;0.45;;
68479;SDS011;55469;48.934;12.050;2022-09-28T03:16:17;0.40;;;0.40;;
68479;SDS011;55469;48.934;12.050;2022-09-28T03:18:43;1.88;;;0.47;;
68479;SDS011;55469;48.934;12.050;2022-09-28T03:21:10;0.35;;;0.30;;
68479;SDS011;55469;48.934;12.050;2022-09-28T03:23:37;0.30;;;0.30;;
68479;SDS011;55469;48.934;12.050;2022-09-28T03:26:05;0.43;;;0.40;;
68479;SDS011;55469;48.934;12.050;2022-09-28T03:28:36;0.65;;;0.50;;
68479;SDS011;55469;48.934;12.050;2022-09-28T03:31:02;0.30;;;0.30;;
68479;SDS011;55469;48.934;12.050;2022-09-28T03:33:28;0.40;;;0.40;;
68479;SDS011;55469;48.934;12.050;2022-09-28T03:35:54;0.30;;;0.30;;
68479;SDS011;55469;48.934;12.050;2022-09-28T03:38:20;0.40;;;0.40;;
68479;SDS011;55469;48.934;12.050;2022-09-28T03:40:52;0.30;;;0.30;;
68479;SDS011;55469;48.934;12.050;2022-09-28T03:43:20;0.40;;;0.40;;
68479;SDS011;55469;48.934;12.050;2022-09-28T03:48:23;0.40;;;0.40;;
68479;SDS011;55469;48.934;12.050;2022-09-28T03:50:56;0.32;;;0.30;;
68479;SDS011;55469;48.934;12.050;2022-09-28T03:53:23;0.43;;;0.43;;
68479;SDS011;55469;48.934;12.050;2022-09-28T03:55:50;0.68;;;0.30;;
68479;SDS011;55469;48.934;12.050;2022-09-28T03:58:19;0.40;;;0.30;;
68479;SDS011;55469;48.934;12.050;2022-09-28T04:00:47;0.45;;;0.40;;
68479;SDS011;55469;48.934;12.050;2022-09-28T04:03:14;0.35;;;0.35;;
68479;SDS011;55469;48.934;12.050;2022-09-28T04:05:49;0.50;;;0.40;;
68479;SDS011;55469;48.934;12.050;2022-09-28T04:08:17;0.30;;;0.30;;
68479;SDS011;55469;48.934;12.050;2022-09-28T04:10:43;0.40;;;0.40;;
68479;SDS011;55469;48.934;12.050;2022-09-28T04:13:09;0.32;;;0.32;;
68479;SDS011;55469;48.934;12.050;2022-09-28T04:15:35;0.30;;;0.30;;
68479;SDS011;55469;48.934;12.050;2022-09-28T04:18:02;0.30;;;0.30;;
68479;SDS011;55469;48.934;12.050;2022-09-28T04:20:35;0.38;;;0.38;;
68479;SDS011;55469;48.934;12.050;2022-09-28T04:23:00;0.40;;;0.40;;
68479;SDS011;55469;48.934;12.050;2022-09-28T04:25:26;0.30;;;0.30;;
68479;SDS011;55469;48.934;12.050;2022-09-28T04:27:52;0.73;;;0.30;;
68479;SDS011;55469;48.934;12.050;2022-09-28T04:30:36;0.30;;;0.30;;
68479;SDS011;55469;48.934;12.050;2022-09-28T04:33:02;0.55;;;0.30;;
68479;SDS011;55469;48.934;12.050;2022-09-28T04:35:28;0.60;;;0.60;;
68479;SDS011;55469;48.934;12.050;2022-09-28T04:37:53;0.35;;;0.35;;
68479;SDS011;55469;48.934;12.050;2022-09-28T04:40:19;0.30;;;0.30;;
68479;SDS011;55469;48.934;12.050;2022-09-28T04:42:51;0.40;;;0.40;;
68479;SDS011;55469;48.934;12.050;2022-09-28T04:45:20;0.50;;;0.30;;
68479;SDS011;55469;48.934;12.050;2022-09-28T04:47:49;0.40;;;0.40;;
68479;SDS011;55469;48.934;12.050;2022-09-28T04:50:15;0.40;;;0.40;;
68479;SDS011;55469;48.934;12.050;2022-09-28T04:52:40;0.50;;;0.40;;
68479;SDS011;55469;48.934;12.050;2022-09-28T04:55:07;0.30;;;0.30;;
68479;SDS011;55469;48.934;12.050;2022-09-28T04:57:37;0.22;;;0.22;;
68479;SDS011;55469;48.934;12.050;2022-09-28T05:00:04;0.28;;;0.28;;
68479;SDS011;55469;48.934;12.050;2022-09-28T05:02:30;0.25;;;0.25;;
68479;SDS011;55469;48.934;12.050;2022-09-28T05:04:57;0.40;;;0.40;;
68479;SDS011;55469;48.934;12.050;2022-09-28T05:07:23;0.30;;;0.30;;
68479;SDS011;55469;48.934;12.050;2022-09-28T05:09:50;0.40;;;0.40;;
68479;SDS011;55469;48.934;12.050;2022-09-28T05:12:15;0.90;;;0.40;;
68479;SDS011;55469;48.934;12.050;2022-09-28T05:14:42;0.40;;;0.30;;
68479;SDS011;55469;48.934;12.050;2022-09-28T05:17:08;0.30;;;0.30;;
68479;SDS011;55469;48.934;12.050;2022-09-28T05:19:34;0.82;;;0.30;;
68479;SDS011;55469;48.934;12.050;2022-09-28T05:22:00;0.30;;;0.30;;
68479;SDS011;55469;48.934;12.050;2022-09-28T05:24:34;0.30;;;0.30;;
68479;SDS011;55469;48.934;12.050;2022-09-28T05:27:00;0.30;;;0.30;;
68479;SDS011;55469;48.934;12.050;2022-09-28T05:29:26;0.30;;;0.30;;
68479;SDS011;55469;48.934;12.050;2022-09-28T05:31:51;0.40;;;0.40;;
68479;SDS011;55469;48.934;12.050;2022-09-28T05:34:17;0.30;;;0.30;;
68479;SDS011;55469;48.934;12.050;2022-09-28T05:36:43;0.40;;;0.40;;
68479;SDS011;55469;48.934;12.050;2022-09-28T05:39:09;0.32;;;0.30;;
68479;SDS011;55469;48.934;12.050;2022-09-28T05:41:35;0.50;;;0.40;;
68479;SDS011;55469;48.934;12.050;2022-09-28T05:44:01;0.30;;;0.30;;
68479;SDS011;55469;48.934;12.050;2022-09-28T05:46:27;0.70;;;0.30;;
68479;SDS011;55469;48.934;12.050;2022-09-28T05:48:52;0.35;;;0.35;;
68479;SDS011;55469;48.934;12.050;2022-09-28T05:51:18;0.40;;;0.30;;
68479;SDS011;55469;48.934;12.050;2022-09-28T05:53:45;0.47;;;0.35;;
68479;SDS011;55469;48.934;12.050;2022-09-28T05:56:11;0.40;;;0.40;;
68479;SDS011;55469;48.934;12.050;2022-09-28T05:58:36;0.30;;;0.30;;
68479;SDS011;55469;48.934;12.050;2022-09-28T06:01:02;0.30;;;0.30;;
68479;SDS011;55469;48.934;12.050;2022-09-28T06:03:28;0.30;;;0.30;;
68479;SDS011;55469;48.934;12.050;2022-09-28T06:05:53;0.30;;;0.30;;
68479;SDS011;55469;48.934;12.050;2022-09-28T06:08:19;0.75;;;0.38;;
68479;SDS011;55469;48.934;12.050;2022-09-28T06:10:45;0.40;;;0.40;;
68479;SDS011;55469;48.934;12.050;2022-09-28T06:13:11;0.30;;;0.30;;
68479;SDS011;55469;48.934;12.050;2022-09-28T06:15:37;0.30;;;0.30;;
68479;SDS011;55469;48.934;12.050;2022-09-28T06:18:08;0.35;;;0.30;;
68479;SDS011;55469;48.934;12.050;2022-09-28T06:20:39;0.40;;;0.40;;
68479;SDS011;55469;48.934;12.050;2022-09-28T06:23:05;0.20;;;0.20;;
68479;SDS011;55469;48.934;12.050;2022-09-28T06:25:35;0.40;;;0.40;;
68479;SDS011;55469;48.934;12.050;2022-09-28T06:28:02;0.28;;;0.28;;
68479;SDS011;55469;48.934;12.050;2022-09-28T06:30:34;0.45;;;0.40;;
68479;SDS011;55469;48.934;12.050;2022-09-28T06:33:03;0.35;;;0.32;;
68479;SDS011;55469;48.934;12.050;2022-09-28T06:35:30;0.40;;;0.40;;
68479;SDS011;55469;48.934;12.050;2022-09-28T06:37:59;0.30;;;0.30;;
68479;SDS011;55469;48.934;12.050;2022-09-28T06:40:25;0.40;;;0.40;;
68479;SDS011;55469;48.934;12.050;2022-09-28T06:42:59;0.32;;;0.32;;
68479;SDS011;55469;48.934;12.050;2022-09-28T06:45:34;0.30;;;0.30;;
68479;SDS011;55469;48.934;12.050;2022-09-28T06:48:02;0.85;;;0.30;;
68479;SDS011;55469;48.934;12.050;2022-09-28T06:50:30;0.57;;;0.30;;
68479;SDS011;55469;48.934;12.050;2022-09-28T06:53:01;0.40;;;0.40;;
68479;SDS011;55469;48.934;12.050;2022-09-28T06:55:28;0.47;;;0.30;;
68479;SDS011;55469;48.934;12.050;2022-09-28T06:57:57;0.60;;;0.40;;
68479;SDS011;55469;48.934;12.050;2022-09-28T07:00:26;0.45;;;0.30;;
68479;SDS011;55469;48.934;12.050;2022-09-28T07:02:53;0.43;;;0.40;;
68479;SDS011;55469;48.934;12.050;2022-09-28T07:05:19;0.30;;;0.30;;
68479;SDS011;55469;48.934;12.050;2022-09-28T07:07:50;0.50;;;0.40;;
68479;SDS011;55469;48.934;12.050;2022-09-28T07:10:19;0.30;;;0.30;;
68479;SDS011;55469;48.934;12.050;2022-09-28T07:12:55;0.30;;;0.30;;
68479;SDS011;55469;48.934;12.050;2022-09-28T07:15:23;0.32;;;0.32;;
68479;SDS011;55469;48.934;12.050;2022-09-28T07:17:49;0.30;;;0.30;;
68479;SDS011;55469;48.934;12.050;2022-09-28T07:20:22;1.00;;;0.30;;
68479;SDS011;55469;48.934;12.050;2022-09-28T07:22:52;0.93;;;0.40;;
68479;SDS011;55469;48.934;12.050;2022-09-28T07:25:23;0.30;;;0.30;;
68479;SDS011;55469;48.934;12.050;2022-09-28T07:27:50;0.38;;;0.38;;
68479;SDS011;55469;48.934;12.050;2022-09-28T07:30:21;0.40;;;0.40;;
68479;SDS011;55469;48.934;12.050;2022-09-28T07:32:50;0.30;;;0.30;;
68479;SDS011;55469;48.934;12.050;2022-09-28T07:35:16;0.40;;;0.40;;
68479;SDS011;55469;48.934;12.050;2022-09-28T07:37:42;0.30;;;0.30;;
68479;SDS011;55469;48.934;12.050;2022-09-28T07:40:07;0.35;;;0.35;;
68479;SDS011;55469;48.934;12.050;2022-09-28T07:42:52;0.93;;;0.40;;
68479;SDS011;55469;48.934;12.050;2022-09-28T07:45:18;0.30;;;0.30;;
68479;SDS011;55469;48.934;12.050;2022-09-28T07:47:50;0.32;;;0.30;;
68479;SDS011;55469;48.934;12.050;2022-09-28T07:50:19;0.32;;;0.32;;
68479;SDS011;55469;48.934;12.050;2022-09-28T07:52:46;0.80;;;0.40;;
68479;SDS011;55469;48.934;12.050;2022-09-28T07:55:12;0.47;;;0.47;;
68479;SDS011;55469;48.934;12.050;2022-09-28T07:57:38;0.63;;;0.63;;
68479;SDS011;55469;48.934;12.050;2022-09-28T08:00:04;0.40;;;0.40;;
68479;SDS011;55469;48.934;12.050;2022-09-28T08:02:32;0.30;;;0.30;;
68479;SDS011;55469;48.934;12.050;2022-09-28T08:04:59;0.40;;;0.40;;
68479;SDS011;55469;48.934;12.050;2022-09-28T08:07:26;0.50;;;0.50;;
68479;SDS011;55469;48.934;12.050;2022-09-28T08:09:52;0.30;;;0.30;;
68479;SDS011;55469;48.934;12.050;2022-09-28T08:12:18;0.35;;;0.30;;
68479;SDS011;55469;48.934;12.050;2022-09-28T08:14:45;0.40;;;0.30;;
68479;SDS011;55469;48.934;12.050;2022-09-28T08:17:12;0.65;;;0.40;;
68479;SDS011;55469;48.934;12.050;2022-09-28T08:19:39;0.77;;;0.45;;
68479;SDS011;55469;48.934;12.050;2022-09-28T08:22:23;0.40;;;0.40;;
68479;SDS011;55469;48.934;12.050;2022-09-28T08:24:49;0.52;;;0.40;;
68479;SDS011;55469;48.934;12.050;2022-09-28T08:27:15;1.02;;;0.40;;
68479;SDS011;55469;48.934;12.050;2022-09-28T08:29:41;0.50;;;0.50;;
68479;SDS011;55469;48.934;12.050;2022-09-28T08:32:08;0.47;;;0.47;;
68479;SDS011;55469;48.934;12.050;2022-09-28T08:37:03;0.45;;;0.45;;
68479;SDS011;55469;48.934;12.050;2022-09-28T08:39:31;0.52;;;0.50;;
68479;SDS011;55469;48.934;12.050;2022-09-28T08:42:02;0.30;;;0.30;;
68479;SDS011;55469;48.934;12.050;2022-09-28T08:44:57;0.35;;;0.35;;
68479;SDS011;55469;48.934;12.050;2022-09-28T08:47:34;1.42;;;0.50;;
68479;SDS011;55469;48.934;12.050;2022-09-28T08:50:33;0.32;;;0.32;;
68479;SDS011;55469;48.934;12.050;2022-09-28T08:53:12;0.33;;;0.33;;
68479;SDS011;55469;48.934;12.050;2022-09-28T08:56:01;0.40;;;0.40;;
68479;SDS011;55469;48.934;12.050;2022-09-28T08:58:32;0.40;;;0.40;;
68479;SDS011;55469;48.934;12.050;2022-09-28T09:01:04;0.77;;;0.40;;
68479;SDS011;55469;48.934;12.050;2022-09-28T09:03:33;0.90;;;0.40;;
68479;SDS011;55469;48.934;12.050;2022-09-28T09:08:58;0.40;;;0.40;;
68479;SDS011;55469;48.934;12.050;2022-09-28T09:17:43;0.82;;;0.43;;
68479;SDS011;55469;48.934;12.050;2022-09-28T09:20:56;0.40;;;0.40;;
68479;SDS011;55469;48.934;12.050;2022-09-28T09:26:09;0.52;;;0.40;;
68479;SDS011;55469;48.934;12.050;2022-09-28T09:29:01;0.30;;;0.30;;
68479;SDS011;55469;48.934;12.050;2022-09-28T09:40:14;0.30;;;0.30;;
68479;SDS011;55469;48.934;12.050;2022-09-28T09:43:03;0.40;;;0.40;;
68479;SDS011;55469;48.934;12.050;2022-09-28T09:46:00;0.40;;;0.40;;
68479;SDS011;55469;48.934;12.050;2022-09-28T09:54:32;0.40;;;0.40;;
68479;SDS011;55469;48.934;12.050;2022-09-28T09:57:09;0.40;;;0.40;;
68479;SDS011;55469;48.934;12.050;2022-09-28T09:59:41;0.95;;;0.60;;
68479;SDS011;55469;48.934;12.050;2022-09-28T10:04:55;0.85;;;0.40;;
68479;SDS011;55469;48.934;12.050;2022-09-28T10:08:00;0.50;;;0.50;;
68479;SDS011;55469;48.934;12.050;2022-09-28T10:10:34;0.40;;;0.40;;
68479;SDS011;55469;48.934;12.050;2022-09-28T10:13:02;0.57;;;0.40;;
68479;SDS011;55469;48.934;12.050;2022-09-28T10:15:32;0.40;;;0.40;;
68479;SDS011;55469;48.934;12.050;2022-09-28T10:18:04;0.60;;;0.40;;
68479;SDS011;55469;48.934;12.050;2022-09-28T10:20:39;0.50;;;0.50;;
68479;SDS011;55469;48.934;12.050;2022-09-28T10:23:19;0.40;;;0.40;;
68479;SDS011;55469;48.934;12.050;2022-09-28T10:25:51;0.60;;;0.50;;
68479;SDS011;55469;48.934;12.050;2022-09-28T10:31:35;0.40;;;0.40;;
68479;SDS011;55469;48.934;12.050;2022-09-28T10:34:07;0.50;;;0.40;;
68479;SDS011;55469;48.934;12.050;2022-09-28T10:41:54;0.90;;;0.70;;
68479;SDS011;55469;48.934;12.050;2022-09-28T10:44:22;0.77;;;0.40;;
68479;SDS011;55469;48.934;12.050;2022-09-28T10:46:56;0.63;;;0.45;;
68479;SDS011;55469;48.934;12.050;2022-09-28T10:49:25;1.45;;;0.60;;
68479;SDS011;55469;48.934;12.050;2022-09-28T10:51:53;1.58;;;0.90;;
68479;SDS011;55469;48.934;12.050;2022-09-28T10:54:23;0.50;;;0.50;;
68479;SDS011;55469;48.934;12.050;2022-09-28T10:56:52;1.23;;;0.60;;
68479;SDS011;55469;48.934;12.050;2022-09-28T10:59:33;1.65;;;0.60;;
68479;SDS011;55469;48.934;12.050;2022-09-28T11:02:25;1.50;;;0.60;;
68479;SDS011;55469;48.934;12.050;2022-09-28T11:04:57;0.95;;;0.70;;
68479;SDS011;55469;48.934;12.050;2022-09-28T11:07:26;1.50;;;0.70;;
68479;SDS011;55469;48.934;12.050;2022-09-28T11:09:56;0.50;;;0.50;;
68479;SDS011;55469;48.934;12.050;2022-09-28T11:12:26;1.38;;;0.80;;
68479;SDS011;55469;48.934;12.050;2022-09-28T11:15:00;1.00;;;0.60;;
68479;SDS011;55469;48.934;12.050;2022-09-28T11:17:30;2.45;;;0.75;;
68479;SDS011;55469;48.934;12.050;2022-09-28T11:20:36;1.60;;;0.80;;
68479;SDS011;55469;48.934;12.050;2022-09-28T11:23:15;0.75;;;0.75;;
68479;SDS011;55469;48.934;12.050;2022-09-28T11:26:01;1.77;;;0.70;;
68479;SDS011;55469;48.934;12.050;2022-09-28T11:28:31;0.98;;;0.63;;
68479;SDS011;55469;48.934;12.050;2022-09-28T11:31:02;0.73;;;0.50;;
68479;SDS011;55469;48.934;12.050;2022-09-28T11:38:59;0.75;;;0.60;;
68479;SDS011;55469;48.934;12.050;2022-09-28T11:44:26;0.70;;;0.70;;
68479;SDS011;55469;48.934;12.050;2022-09-28T11:47:30;1.67;;;0.63;;
68479;SDS011;55469;48.934;12.050;2022-09-28T11:53:15;1.00;;;0.73;;
68479;SDS011;55469;48.934;12.050;2022-09-28T11:55:58;0.80;;;0.70;;
68479;SDS011;55469;48.934;12.050;2022-09-28T11:58:47;0.98;;;0.68;;
68479;SDS011;55469;48.934;12.050;2022-09-28T12:01:22;0.73;;;0.60;;
68479;SDS011;55469;48.934;12.050;2022-09-28T12:04:22;1.38;;;0.70;;
68479;SDS011;55469;48.934;12.050;2022-09-28T12:09:54;0.80;;;0.57;;
68479;SDS011;55469;48.934;12.050;2022-09-28T12:12:38;0.50;;;0.50;;
68479;SDS011;55469;48.934;12.050;2022-09-28T12:17:47;0.63;;;0.50;;
68479;SDS011;55469;48.934;12.050;2022-09-28T12:20:31;0.77;;;0.77;;
68479;SDS011;55469;48.934;12.050;2022-09-28T12:23:14;0.65;;;0.65;;
68479;SDS011;55469;48.934;12.050;2022-09-28T12:26:01;0.70;;;0.50;;
68479;SDS011;55469;48.934;12.050;2022-09-28T12:28:46;0.60;;;0.60;;
68479;SDS011;55469;48.934;12.050;2022-09-28T12:31:16;1.05;;;0.63;;
68479;SDS011;55469;48.934;12.050;2022-09-28T12:34:02;1.35;;;0.70;;
68479;SDS011;55469;48.934;12.050;2022-09-28T12:48:20;2.03;;;0.77;;
68479;SDS011;55469;48.934;12.050;2022-09-28T13:00:18;0.73;;;0.60;;
68479;SDS011;55469;48.934;12.050;2022-09-28T13:08:16;0.68;;;0.50;;
68479;SDS011;55469;48.934;12.050;2022-09-28T13:10:52;1.38;;;0.90;;
68479;SDS011;55469;48.934;12.050;2022-09-28T13:16:54;0.68;;;0.68;;
68479;SDS011;55469;48.934;12.050;2022-09-28T13:19:41;1.02;;;0.80;;
68479;SDS011;55469;48.934;12.050;2022-09-28T13:22:42;1.73;;;0.60;;
68479;SDS011;55469;48.934;12.050;2022-09-28T13:25:26;0.73;;;0.60;;
68479;SDS011;55469;48.934;12.050;2022-09-28T13:27:57;1.70;;;0.63;;
68479;SDS011;55469;48.934;12.050;2022-09-28T13:30:27;0.50;;;0.50;;
68479;SDS011;55469;48.934;12.050;2022-09-28T13:32:54;0.93;;;0.70;;
68479;SDS011;55469;48.934;12.050;2022-09-28T13:35:22;0.63;;;0.60;;
68479;SDS011;55469;48.934;12.050;2022-09-28T13:52:34;0.85;;;0.60;;
68479;SDS011;55469;48.934;12.050;2022-09-28T13:55:30;0.60;;;0.60;;
68479;SDS011;55469;48.934;12.050;2022-09-28T14:01:17;1.73;;;0.80;;
68479;SDS011;55469;48.934;12.050;2022-09-28T14:03:55;0.68;;;0.60;;
68479;SDS011;55469;48.934;12.050;2022-09-28T14:06:52;1.13;;;0.63;;
68479;SDS011;55469;48.934;12.050;2022-09-28T14:09:46;0.55;;;0.55;;
68479;SDS011;55469;48.934;12.050;2022-09-28T14:15:00;0.90;;;0.75;;
68479;SDS011;55469;48.934;12.050;2022-09-28T14:20:08;1.13;;;0.70;;
68479;SDS011;55469;48.934;12.050;2022-09-28T14:25:37;1.02;;;0.68;;
68479;SDS011;55469;48.934;12.050;2022-09-28T14:28:33;0.80;;;0.65;;
68479;SDS011;55469;48.934;12.050;2022-09-28T14:31:14;0.95;;;0.70;;
68479;SDS011;55469;48.934;12.050;2022-09-28T14:33:59;0.70;;;0.70;;
68479;SDS011;55469;48.934;12.050;2022-09-28T14:36:35;0.82;;;0.70;;
68479;SDS011;55469;48.934;12.050;2022-09-28T14:39:26;0.80;;;0.73;;
68479;SDS011;55469;48.934;12.050;2022-09-28T14:42:15;1.73;;;0.80;;
68479;SDS011;55469;48.934;12.050;2022-09-28T14:47:41;1.08;;;0.70;;
68479;SDS011;55469;48.934;12.050;2022-09-28T14:50:34;1.65;;;0.82;;
68479;SDS011;55469;48.934;12.050;2022-09-28T14:53:04;1.33;;;0.60;;
68479;SDS011;55469;48.934;12.050;2022-09-28T14:55:46;0.70;;;0.70;;
68479;SDS011;55469;48.934;12.050;2022-09-28T14:58:26;1.02;;;0.80;;
68479;SDS011;55469;48.934;12.050;2022-09-28T15:01:01;0.82;;;0.63;;
68479;SDS011;55469;48.934;12.050;2022-09-28T15:03:36;0.60;;;0.60;;
68479;SDS011;55469;48.934;12.050;2022-09-28T15:06:08;0.82;;;0.73;;
68479;SDS011;55469;48.934;12.050;2022-09-28T15:08:40;0.98;;;0.70;;
68479;SDS011;55469;48.934;12.050;2022-09-28T15:11:09;0.60;;;0.60;;
68479;SDS011;55469;48.934;12.050;2022-09-28T15:13:39;0.93;;;0.80;;
68479;SDS011;55469;48.934;12.050;2022-09-28T15:16:07;0.60;;;0.60;;
68479;SDS011;55469;48.934;12.050;2022-09-28T15:18:59;2.05;;;0.70;;
68479;SDS011;55469;48.934;12.050;2022-09-28T15:21:51;0.73;;;0.73;;
68479;SDS011;55469;48.934;12.050;2022-09-28T15:26:58;1.00;;;0.60;;
68479;SDS011;55469;48.934;12.050;2022-09-28T15:29:25;0.65;;;0.65;;
68479;SDS011;55469;48.934;12.050;2022-09-28T15:31:58;0.75;;;0.70;;
68479;SDS011;55469;48.934;12.050;2022-09-28T15:34:31;0.70;;;0.60;;
68479;SDS011;55469;48.934;12.050;2022-09-28T15:37:16;0.88;;;0.85;;
68479;SDS011;55469;48.934;12.050;2022-09-28T15:39:49;0.80;;;0.80;;
68479;SDS011;55469;48.934;12.050;2022-09-28T15:42:16;0.77;;;0.70;;
68479;SDS011;55469;48.934;12.050;2022-09-28T15:44:59;0.82;;;0.70;;
68479;SDS011;55469;48.934;12.050;2022-09-28T15:47:30;0.73;;;0.63;;
68479;SDS011;55469;48.934;12.050;2022-09-28T15:50:00;1.10;;;0.70;;
68479;SDS011;55469;48.934;12.050;2022-09-28T15:58:03;0.70;;;0.70;;
68479;SDS011;55469;48.934;12.050;2022-09-28T16:00:32;0.73;;;0.70;;
68479;SDS011;55469;48.934;12.050;2022-09-28T16:05:44;0.98;;;0.88;;
68479;SDS011;55469;48.934;12.050;2022-09-28T16:08:16;1.02;;;0.80;;
68479;SDS011;55469;48.934;12.050;2022-09-28T16:13:42;0.73;;;0.73;;
68479;SDS011;55469;48.934;12.050;2022-09-28T16:16:24;0.70;;;0.70;;
68479;SDS011;55469;48.934;12.050;2022-09-28T16:18:53;0.45;;;0.40;;
68479;SDS011;55469;48.934;12.050;2022-09-28T16:21:30;1.08;;;0.73;;
68479;SDS011;55469;48.934;12.050;2022-09-28T16:24:03;0.70;;;0.70;;
68479;SDS011;55469;48.934;12.050;2022-09-28T16:26:35;0.65;;;0.65;;
68479;SDS011;55469;48.934;12.050;2022-09-28T16:29:14;0.68;;;0.63;;
68479;SDS011;55469;48.934;12.050;2022-09-28T16:31:50;1.65;;;0.63;;
68479;SDS011;55469;48.934;12.050;2022-09-28T16:34:19;0.70;;;0.70;;
68479;SDS011;55469;48.934;12.050;2022-09-28T16:36:49;0.70;;;0.70;;
68479;SDS011;55469;48.934;12.050;2022-09-28T16:39:15;0.70;;;0.70;;
68479;SDS011;55469;48.934;12.050;2022-09-28T16:42:01;1.35;;;0.77;;
68479;SDS011;55469;48.934;12.050;2022-09-28T16:44:35;0.82;;;0.80;;
68479;SDS011;55469;48.934;12.050;2022-09-28T16:47:01;1.60;;;0.80;;
68479;SDS011;55469;48.934;12.050;2022-09-28T16:49:27;0.93;;;0.50;;
68479;SDS011;55469;48.934;12.050;2022-09-28T16:51:55;0.80;;;0.80;;
68479;SDS011;55469;48.934;12.050;2022-09-28T16:54:22;0.60;;;0.60;;
68479;SDS011;55469;48.934;12.050;2022-09-28T16:57:08;0.70;;;0.70;;
68479;SDS011;55469;48.934;12.050;2022-09-28T16:59:36;0.70;;;0.60;;
68479;SDS011;55469;48.934;12.050;2022-09-28T17:02:18;1.05;;;0.82;;
68479;SDS011;55469;48.934;12.050;2022-09-28T17:04:49;0.65;;;0.60;;
68479;SDS011;55469;48.934;12.050;2022-09-28T17:07:15;0.60;;;0.60;;
68479;SDS011;55469;48.934;12.050;2022-09-28T17:09:42;0.93;;;0.82;;
68479;SDS011;55469;48.934;12.050;2022-09-28T17:12:13;1.48;;;0.80;;
68479;SDS011;55469;48.934;12.050;2022-09-28T17:14:44;0.65;;;0.65;;
68479;SDS011;55469;48.934;12.050;2022-09-28T17:17:10;0.98;;;0.80;;
68479;SDS011;55469;48.934;12.050;2022-09-28T17:19:36;0.70;;;0.70;;
68479;SDS011;55469;48.934;12.050;2022-09-28T17:22:01;0.82;;;0.70;;
68479;SDS011;55469;48.934;12.050;2022-09-28T17:24:27;1.77;;;0.70;;
68479;SDS011;55469;48.934;12.050;2022-09-28T17:26:53;0.80;;;0.73;;
68479;SDS011;55469;48.934;12.050;2022-09-28T17:29:19;0.80;;;0.80;;
68479;SDS011;55469;48.934;12.050;2022-09-28T17:31:46;0.80;;;0.80;;
68479;SDS011;55469;48.934;12.050;2022-09-28T17:34:12;1.25;;;0.80;;
68479;SDS011;55469;48.934;12.050;2022-09-28T17:36:44;0.70;;;0.70;;
68479;SDS011;55469;48.934;12.050;2022-09-28T17:39:13;1.35;;;0.70;;
68479;SDS011;55469;48.934;12.050;2022-09-28T17:41:42;0.70;;;0.70;;
68479;SDS011;55469;48.934;12.050;2022-09-28T17:44:08;0.73;;;0.73;;
68479;SDS011;55469;48.934;12.050;2022-09-28T17:46:35;0.80;;;0.80;;
68479;SDS011;55469;48.934;12.050;2022-09-28T17:49:04;1.00;;;0.80;;
68479;SDS011;55469;48.934;12.050;2022-09-28T17:51:35;0.80;;;0.80;;
68479;SDS011;55469;48.934;12.050;2022-09-28T17:54:01;1.45;;;0.80;;
68479;SDS011;55469;48.934;12.050;2022-09-28T17:56:30;0.80;;;0.70;;
68479;SDS011;55469;48.934;12.050;2022-09-28T17:58:57;0.70;;;0.70;;
68479;SDS011;55469;48.934;12.050;2022-09-28T18:01:27;0.95;;;0.88;;
68479;SDS011;55469;48.934;12.050;2022-09-28T18:03:58;0.85;;;0.60;;